createdAt,value
2023-01-17T00:13:56.712Z,0.40
2023-01-17T00:20:48.551Z,0.30
2023-01-17T00:23:40.211Z,0.30
2023-01-17T00:26:14.731Z,0.60
2023-01-17T00:28:43.407Z,0.47
2023-01-17T00:31:13.056Z,0.30
2023-01-17T00:33:40.502Z,0.30
2023-01-17T00:36:10.073Z,0.70
2023-01-17T00:38:38.813Z,0.60
2023-01-17T01:06:16.053Z,0.40
2023-01-17T01:09:01.930Z,0.50
2023-01-17T01:11:47.916Z,0.50
2023-01-17T01:14:33.692Z,0.60
2023-01-17T01:17:19.870Z,0.50
2023-01-17T01:20:05.663Z,0.40
2023-01-17T01:22:52.519Z,0.30
2023-01-17T01:25:38.381Z,0.40
2023-01-17T01:28:25.201Z,0.40
2023-01-17T01:31:11.217Z,0.40
2023-01-17T01:33:39.852Z,0.40
2023-01-17T01:36:09.680Z,0.60
2023-01-17T01:38:39.624Z,0.30
2023-01-17T01:41:08.850Z,0.50
2023-01-17T01:43:48.546Z,0.60
2023-01-17T01:49:55.916Z,0.50
2023-01-17T01:52:30.231Z,0.43
2023-01-17T01:55:03.685Z,0.50
2023-01-17T01:57:36.291Z,0.60
2023-01-17T02:00:08.827Z,0.60
2023-01-17T02:02:40.600Z,0.60
2023-01-17T02:05:10.944Z,0.50
2023-01-17T02:07:44.591Z,0.60
2023-01-17T02:10:14.217Z,0.40
2023-01-17T02:13:07.984Z,0.50
2023-01-17T02:15:46.667Z,0.47
2023-01-17T02:18:22.280Z,0.40
2023-01-17T02:21:12.786Z,0.50
2023-01-17T02:24:07.881Z,0.40
2023-01-17T02:26:52.150Z,0.52
2023-01-17T02:30:03.834Z,0.60
2023-01-17T02:32:44.896Z,0.50
2023-01-17T03:06:36.542Z,0.40
2023-01-17T03:09:05.802Z,0.40
2023-01-17T03:11:56.902Z,0.63
2023-01-17T03:14:25.443Z,0.50
2023-01-17T03:16:54.784Z,0.60
2023-01-17T03:19:26.290Z,0.50
2023-01-17T03:21:56.150Z,1.23
2023-01-17T03:24:27.757Z,1.63
2023-01-17T03:39:17.132Z,0.40
2023-01-17T03:41:45.568Z,0.50
2023-01-17T03:44:14.108Z,0.45
2023-01-17T03:46:42.522Z,0.43
2023-01-17T03:49:11.273Z,0.50
2023-01-17T03:51:43.782Z,0.43
2023-01-17T03:54:14.809Z,0.47
2023-01-17T03:56:44.475Z,0.60
2023-01-17T03:59:13.356Z,0.50
2023-01-17T04:01:41.969Z,0.40
2023-01-17T04:04:10.468Z,0.50
2023-01-17T04:06:38.925Z,0.80
2023-01-17T04:09:07.410Z,0.40
2023-01-17T04:11:35.897Z,0.70
2023-01-17T04:14:05.318Z,0.43
2023-01-17T04:16:33.887Z,0.40
2023-01-17T04:19:02.355Z,0.60
2023-01-17T04:21:30.741Z,0.50
2023-01-17T04:23:59.112Z,0.60
2023-01-17T04:27:09.545Z,0.40
2023-01-17T04:30:01.405Z,0.50
2023-01-17T04:32:32.659Z,0.70
2023-01-17T04:35:07.177Z,0.40
2023-01-17T04:37:55.774Z,0.50
2023-01-17T04:40:27.519Z,0.57
2023-01-17T04:42:56.076Z,0.40
2023-01-17T04:45:25.577Z,0.70
2023-01-17T04:47:54.287Z,2.90
2023-01-17T04:50:22.739Z,1.95
2023-01-17T04:53:17.824Z,0.77
2023-01-17T04:55:52.209Z,0.50
2023-01-17T04:58:20.849Z,0.60
2023-01-17T05:00:51.238Z,0.80
2023-01-17T05:03:21.115Z,0.60
2023-01-17T05:06:07.480Z,0.63
2023-01-17T05:12:29.216Z,0.60
2023-01-17T05:14:57.900Z,0.63
2023-01-17T05:17:27.503Z,0.60
2023-01-17T05:20:17.172Z,0.90
2023-01-17T05:24:32.367Z,0.63
2023-01-17T05:27:03.837Z,0.70
2023-01-17T05:29:32.431Z,0.63
2023-01-17T05:32:00.866Z,0.70
2023-01-17T05:34:30.604Z,0.60
2023-01-17T05:36:59.032Z,0.65
2023-01-17T05:39:29.758Z,2.15
2023-01-17T05:41:58.435Z,0.70
2023-01-17T05:44:29.794Z,0.80
2023-01-17T05:46:58.182Z,0.67
2023-01-17T05:49:28.035Z,1.20
2023-01-17T05:51:58.003Z,0.80
2023-01-17T05:54:26.484Z,0.95
2023-01-17T05:56:57.482Z,1.30
2023-01-17T05:59:36.578Z,0.90
2023-01-17T06:02:06.222Z,0.88
2023-01-17T06:04:35.049Z,0.90
2023-01-17T06:07:04.860Z,0.70
2023-01-17T06:09:33.392Z,0.98
2023-01-17T06:12:01.990Z,0.97
2023-01-17T06:14:30.569Z,0.90
2023-01-17T06:16:59.290Z,0.70
2023-01-17T06:19:31.465Z,0.60
2023-01-17T06:22:00.102Z,0.82
2023-01-17T06:24:30.469Z,0.83
2023-01-17T06:26:59.110Z,1.10
2023-01-17T06:29:27.664Z,1.10
2023-01-17T06:31:56.234Z,1.10
2023-01-17T06:34:24.863Z,1.05
2023-01-17T06:36:53.497Z,1.00
2023-01-17T06:39:21.937Z,1.10
2023-01-17T06:41:51.554Z,1.23
2023-01-17T06:44:20.152Z,1.35
2023-01-17T06:46:48.826Z,1.00
2023-01-17T06:49:17.362Z,0.87
2023-01-17T06:51:45.927Z,1.30
2023-01-17T06:54:14.520Z,1.35
2023-01-17T06:56:43.242Z,1.17
2023-01-17T06:59:14.833Z,1.52
2023-01-17T07:01:43.298Z,1.37
2023-01-17T07:04:11.795Z,1.65
2023-01-17T07:06:40.169Z,1.55
2023-01-17T07:09:09.244Z,1.48
2023-01-17T07:11:37.959Z,1.65
2023-01-17T07:14:06.881Z,1.70
2023-01-17T07:16:37.273Z,1.30
2023-01-17T07:19:06.144Z,1.10
2023-01-17T07:21:36.617Z,1.30
2023-01-17T07:24:11.300Z,1.30
2023-01-17T07:26:40.920Z,1.27
2023-01-17T07:29:10.115Z,1.00
2023-01-17T07:31:40.672Z,1.20
2023-01-17T07:34:09.345Z,1.63
2023-01-17T07:36:38.158Z,1.20
2023-01-17T07:39:06.916Z,1.50
2023-01-17T07:41:41.212Z,1.38
2023-01-17T07:44:11.452Z,1.73
2023-01-17T07:46:41.388Z,1.60
2023-01-17T07:49:09.965Z,2.17
2023-01-17T07:51:38.606Z,1.33
2023-01-17T07:54:07.406Z,1.60
2023-01-17T07:56:36.087Z,1.70
2023-01-17T07:59:07.496Z,1.63
2023-01-17T08:01:37.953Z,1.50
2023-01-17T08:04:09.419Z,1.40
2023-01-17T08:06:40.208Z,1.63
2023-01-17T08:09:08.598Z,1.70
2023-01-17T08:11:36.920Z,1.95
2023-01-17T08:14:05.482Z,1.90
2023-01-17T08:16:34.013Z,1.90
2023-01-17T08:19:02.472Z,1.90
2023-01-17T08:21:32.298Z,2.00
2023-01-17T08:24:00.787Z,2.15
2023-01-17T08:26:29.203Z,1.30
2023-01-17T08:29:06.246Z,1.23
2023-01-17T08:31:36.719Z,1.20
2023-01-17T08:34:05.401Z,1.35
2023-01-17T08:36:35.006Z,1.15
2023-01-17T08:39:03.588Z,1.40
2023-01-17T08:41:32.381Z,1.13
2023-01-17T08:44:00.894Z,1.50
2023-01-17T08:46:31.368Z,1.33
2023-01-17T08:49:02.861Z,1.20
2023-01-17T08:51:32.800Z,1.40
2023-01-17T08:54:02.500Z,1.17
2023-01-17T08:56:31.004Z,1.77
2023-01-17T08:58:59.887Z,1.80
2023-01-17T09:01:28.424Z,1.52
2023-01-17T09:03:57.150Z,1.83
2023-01-17T09:06:25.894Z,1.50
2023-01-17T09:08:54.938Z,1.35
2023-01-17T09:11:24.614Z,1.90
2023-01-17T09:13:53.401Z,1.60
2023-01-17T09:16:22.136Z,1.70
2023-01-17T09:18:50.755Z,1.87
2023-01-17T09:21:19.916Z,1.45
2023-01-17T09:23:48.684Z,1.60
2023-01-17T09:26:22.822Z,2.40
2023-01-17T09:28:52.593Z,2.03
2023-01-17T09:31:22.564Z,1.90
2023-01-17T09:33:51.862Z,1.48
2023-01-17T09:36:20.537Z,1.52
2023-01-17T09:38:58.944Z,1.70
2023-01-17T09:41:37.213Z,1.55
2023-01-17T09:44:24.552Z,1.30
2023-01-17T09:46:55.374Z,1.35
2023-01-17T09:49:39.011Z,1.50
2023-01-17T09:52:09.350Z,2.50
2023-01-17T09:54:41.512Z,2.60
2023-01-17T09:57:25.794Z,2.90
2023-01-17T10:00:04.291Z,2.20
2023-01-17T10:02:52.517Z,2.10
2023-01-17T10:05:33.322Z,1.88
2023-01-17T10:08:16.843Z,1.73
2023-01-17T10:10:55.979Z,1.80
2023-01-17T10:13:40.109Z,1.85
2023-01-17T10:16:19.763Z,1.73
2023-01-17T10:19:16.996Z,1.55
2023-01-17T10:22:02.137Z,1.40
2023-01-17T10:25:04.259Z,1.97
2023-01-17T10:27:35.683Z,1.48
2023-01-17T10:30:12.934Z,1.45
2023-01-17T10:32:47.278Z,0.98
2023-01-17T10:35:24.931Z,0.80
2023-01-17T10:37:57.105Z,1.03
2023-01-17T10:40:32.528Z,0.80
2023-01-17T10:43:05.937Z,0.98
2023-01-17T10:45:41.385Z,1.02
2023-01-17T10:48:17.074Z,1.20
2023-01-17T10:50:57.279Z,1.70
2023-01-17T10:53:38.675Z,1.33
2023-01-17T10:56:07.539Z,3.30
2023-01-17T10:58:35.932Z,1.70
2023-01-17T11:01:15.057Z,1.30
2023-01-17T11:03:49.505Z,0.80
2023-01-17T11:06:20.237Z,0.88
2023-01-17T11:08:56.488Z,0.85
2023-01-17T11:11:30.191Z,1.20
2023-01-17T11:14:00.939Z,0.90
2023-01-17T11:16:32.490Z,0.73
2023-01-17T11:19:15.310Z,0.90
2023-01-17T11:21:52.192Z,0.70
2023-01-17T11:24:27.414Z,0.80
2023-01-17T11:26:56.922Z,1.00
2023-01-17T11:29:36.798Z,0.90
2023-01-17T11:32:31.152Z,0.68
2023-01-17T11:35:18.250Z,0.70
2023-01-17T11:37:54.254Z,1.00
2023-01-17T11:40:26.818Z,0.90
2023-01-17T11:43:21.103Z,0.90
2023-01-17T11:46:03.431Z,1.00
2023-01-17T11:48:37.472Z,1.50
2023-01-17T11:51:20.839Z,1.17
2023-01-17T11:53:49.492Z,1.70
2023-01-17T11:56:30.597Z,1.60
2023-01-17T11:59:27.834Z,0.93
2023-01-17T12:02:20.385Z,1.05
2023-01-17T12:04:53.829Z,1.00
2023-01-17T12:07:33.157Z,1.20
2023-01-17T12:10:09.636Z,1.23
2023-01-17T12:13:06.669Z,0.90
2023-01-17T12:15:49.547Z,0.90
2023-01-17T12:18:32.205Z,0.80
2023-01-17T12:21:14.076Z,1.00
2023-01-17T12:24:08.557Z,0.80
2023-01-17T12:26:41.423Z,0.90
2023-01-17T12:29:45.362Z,0.90
2023-01-17T12:32:32.567Z,0.90
2023-01-17T12:35:07.527Z,0.80
2023-01-17T12:37:39.191Z,0.80
2023-01-17T12:40:24.061Z,0.90
2023-01-17T12:42:57.562Z,0.93
2023-01-17T12:45:32.049Z,0.85
2023-01-17T12:48:05.158Z,0.82
2023-01-17T12:50:39.349Z,1.23
2023-01-17T12:53:19.706Z,0.80
2023-01-17T12:55:55.582Z,1.00
2023-01-17T12:58:26.998Z,0.90
2023-01-17T13:01:03.861Z,0.90
2023-01-17T13:03:43.589Z,0.70
2023-01-17T13:06:20.925Z,0.80
2023-01-17T13:08:54.761Z,0.85
2023-01-17T13:11:30.159Z,0.90
2023-01-17T13:13:59.917Z,0.73
2023-01-17T13:16:34.738Z,0.80
2023-01-17T13:19:12.556Z,0.73
2023-01-17T13:21:42.568Z,0.85
2023-01-17T13:24:23.205Z,0.80
2023-01-17T13:27:19.826Z,0.70
2023-01-17T13:30:05.026Z,0.80
2023-01-17T13:32:50.207Z,0.70
2023-01-17T13:35:23.779Z,0.82
2023-01-17T13:38:35.641Z,1.10
2023-01-17T13:41:13.971Z,0.90
2023-01-17T13:44:06.129Z,0.87
2023-01-17T13:46:57.178Z,0.80
2023-01-17T13:49:35.427Z,1.10
2023-01-17T13:52:09.643Z,1.00
2023-01-17T13:54:45.956Z,1.05
2023-01-17T13:57:40.184Z,0.70
2023-01-17T14:00:59.358Z,0.95
2023-01-17T14:04:06.732Z,1.00
2023-01-17T14:06:41.605Z,0.70
2023-01-17T14:09:18.174Z,0.90
2023-01-17T14:12:07.923Z,0.83
2023-01-17T14:14:44.167Z,0.88
2023-01-17T14:17:52.734Z,0.90
2023-01-17T14:20:53.280Z,1.00
2023-01-17T14:23:48.557Z,0.90
2023-01-17T14:26:32.596Z,0.93
2023-01-17T14:29:01.381Z,1.05
2023-01-17T14:31:42.224Z,1.23
2023-01-17T14:34:14.948Z,1.00
2023-01-17T14:36:44.478Z,1.05
2023-01-17T14:39:22.125Z,1.07
2023-01-17T14:41:50.809Z,0.88
2023-01-17T14:44:19.183Z,1.77
2023-01-17T14:46:50.160Z,0.88
2023-01-17T14:49:24.260Z,1.00
2023-01-17T14:52:04.829Z,1.17
2023-01-17T14:54:33.526Z,1.20
2023-01-17T14:57:27.410Z,1.17
2023-01-17T15:00:14.529Z,1.00
2023-01-17T15:02:46.273Z,0.90
2023-01-17T15:05:16.376Z,1.13
2023-01-17T15:07:48.783Z,1.00
2023-01-17T15:10:19.819Z,1.02
2023-01-17T15:12:48.390Z,0.95
2023-01-17T15:15:32.140Z,1.10
2023-01-17T15:18:18.055Z,1.00
2023-01-17T15:20:52.329Z,0.85
2023-01-17T15:23:23.513Z,0.90
2023-01-17T15:25:54.037Z,1.00
2023-01-17T15:28:22.714Z,0.80
2023-01-17T15:31:09.733Z,0.90
2023-01-17T15:33:39.913Z,1.08
2023-01-17T15:36:12.752Z,1.25
2023-01-17T15:38:51.183Z,1.27
2023-01-17T15:41:24.706Z,1.10
2023-01-17T15:43:57.601Z,1.00
2023-01-17T15:46:31.538Z,1.10
2023-01-17T15:49:17.869Z,1.15
2023-01-17T15:51:53.015Z,1.13
2023-01-17T15:54:41.379Z,1.10
2023-01-17T15:57:26.596Z,1.33
2023-01-17T15:59:58.458Z,0.98
2023-01-17T16:02:42.912Z,1.23
2023-01-17T16:05:38.727Z,1.30
2023-01-17T16:08:38.788Z,1.20
2023-01-17T16:11:12.472Z,1.27
2023-01-17T16:13:43.205Z,1.40
2023-01-17T16:16:25.281Z,2.17
2023-01-17T16:19:01.201Z,2.58
2023-01-17T16:21:31.125Z,3.00
2023-01-17T16:24:00.640Z,3.20
2023-01-17T16:26:30.341Z,2.45
2023-01-17T16:28:58.952Z,1.85
2023-01-17T16:31:27.400Z,2.10
2023-01-17T16:33:59.832Z,2.00
2023-01-17T16:36:28.917Z,1.97
2023-01-17T16:38:57.618Z,1.70
2023-01-17T16:41:26.921Z,1.90
2023-01-17T16:44:03.388Z,1.60
2023-01-17T16:46:33.462Z,1.60
2023-01-17T16:49:02.433Z,1.50
2023-01-17T16:51:31.077Z,1.63
2023-01-17T16:53:59.786Z,1.60
2023-01-17T16:56:31.478Z,1.50
2023-01-17T16:59:04.667Z,1.85
2023-01-17T17:01:37.260Z,1.50
2023-01-17T17:04:06.304Z,1.52
2023-01-17T17:06:36.427Z,1.80
2023-01-17T17:09:07.079Z,1.45
2023-01-17T17:11:35.903Z,1.52
2023-01-17T17:14:08.726Z,1.40
2023-01-17T17:16:44.478Z,1.67
2023-01-17T17:19:13.267Z,1.65
2023-01-17T17:21:50.020Z,1.80
2023-01-17T17:24:19.853Z,1.83
2023-01-17T17:26:49.790Z,2.90
2023-01-17T17:29:19.666Z,2.47
2023-01-17T17:31:57.085Z,2.42
2023-01-17T17:34:27.685Z,2.20
2023-01-17T17:36:57.807Z,20.90
2023-01-17T17:39:26.489Z,21.27
2023-01-17T17:41:55.289Z,9.57
2023-01-17T17:44:25.447Z,5.00
2023-01-17T17:46:54.259Z,4.63
2023-01-17T17:49:25.442Z,3.00
2023-01-17T17:51:55.255Z,2.37
2023-01-17T17:54:26.536Z,2.90
2023-01-17T17:57:01.973Z,2.42
2023-01-17T17:59:34.238Z,1.90
2023-01-17T18:02:06.741Z,1.70
2023-01-17T18:04:35.926Z,1.80
2023-01-17T18:07:04.805Z,1.88
2023-01-17T18:09:36.331Z,1.80
2023-01-17T18:12:05.101Z,2.10
2023-01-17T18:18:24.958Z,2.40
2023-01-17T18:21:06.434Z,2.25
2023-01-17T18:23:35.111Z,2.38
2023-01-17T18:26:15.913Z,2.33
2023-01-17T18:29:03.661Z,4.22
2023-01-17T18:31:39.099Z,4.30
2023-01-17T18:34:31.612Z,4.82
2023-01-17T18:37:12.286Z,4.35
2023-01-17T18:39:43.693Z,2.72
2023-01-17T18:42:12.946Z,2.40
2023-01-17T18:44:41.818Z,2.47
2023-01-17T18:47:27.816Z,2.20
2023-01-17T18:49:59.294Z,2.13
2023-01-17T18:52:33.104Z,1.90
2023-01-17T18:55:28.369Z,2.55
2023-01-17T18:58:05.554Z,2.30
2023-01-17T19:00:37.710Z,2.45
2023-01-17T19:03:09.927Z,2.20
2023-01-17T19:05:38.861Z,2.42
2023-01-17T19:08:10.352Z,2.72
2023-01-17T19:10:39.108Z,2.50
2023-01-17T19:13:08.209Z,2.35
2023-01-17T19:15:37.015Z,2.75
2023-01-17T19:18:07.346Z,2.22
2023-01-17T19:20:36.536Z,2.95
2023-01-17T19:23:05.525Z,4.60
2023-01-17T19:25:43.112Z,7.90
2023-01-17T19:28:12.125Z,3.35
2023-01-17T19:30:45.676Z,3.40
2023-01-17T19:33:16.958Z,2.92
2023-01-17T19:35:45.544Z,2.60
2023-01-17T19:38:14.362Z,2.40
2023-01-17T19:44:16.236Z,3.10
2023-01-17T19:46:46.207Z,2.55
2023-01-17T19:49:25.088Z,2.27
2023-01-17T19:51:55.286Z,2.45
2023-01-17T19:54:24.114Z,2.90
2023-01-17T19:57:02.116Z,2.65
2023-01-17T19:59:32.988Z,2.47
2023-01-17T20:02:02.150Z,3.17
2023-01-17T20:04:34.670Z,3.25
2023-01-17T20:07:09.758Z,3.13
2023-01-17T20:09:41.032Z,3.15
2023-01-17T20:12:10.887Z,3.10
2023-01-17T20:14:39.425Z,3.53
2023-01-17T20:17:07.821Z,3.80
2023-01-17T20:19:37.656Z,3.10
2023-01-17T20:22:08.674Z,3.25
2023-01-17T20:24:37.455Z,3.70
2023-01-17T20:27:08.711Z,3.50
2023-01-17T20:29:41.967Z,3.95
2023-01-17T20:32:10.749Z,3.60
2023-01-17T20:34:44.677Z,4.38
2023-01-17T20:37:25.047Z,3.88
2023-01-17T20:39:57.264Z,4.03
2023-01-17T20:42:29.843Z,9.55
2023-01-17T20:45:30.143Z,6.55
2023-01-17T20:48:02.111Z,10.07
2023-01-17T20:50:39.877Z,5.07
2023-01-17T20:53:08.998Z,18.37
2023-01-17T20:55:40.388Z,5.47
2023-01-17T20:58:09.542Z,12.00
2023-01-17T21:00:40.560Z,5.53
2023-01-17T21:03:13.205Z,6.05
2023-01-17T21:05:45.281Z,6.20
2023-01-17T21:08:23.779Z,24.17
2023-01-17T21:10:55.507Z,15.73
2023-01-17T21:14:36.986Z,23.98
2023-01-17T21:17:10.745Z,11.32
2023-01-17T21:19:42.804Z,20.33
2023-01-17T21:22:17.087Z,22.92
2023-01-17T21:24:54.213Z,15.18
2023-01-17T21:27:27.590Z,8.38
2023-01-17T21:29:57.716Z,7.05
2023-01-17T21:32:29.364Z,8.70
2023-01-17T21:35:01.294Z,10.80
2023-01-17T21:37:49.903Z,11.77
2023-01-17T21:40:20.637Z,11.57
2023-01-17T21:42:49.410Z,36.78
2023-01-17T21:45:19.915Z,20.23
2023-01-17T21:47:50.316Z,9.50
2023-01-17T21:50:33.047Z,6.40
2023-01-17T21:53:06.475Z,4.20
2023-01-17T21:55:53.572Z,5.25
2023-01-17T21:58:39.840Z,10.53
2023-01-17T22:01:12.195Z,18.27
2023-01-17T22:03:42.506Z,13.82
2023-01-17T22:06:16.270Z,8.05
2023-01-17T22:08:46.777Z,11.30
2023-01-17T22:11:21.098Z,5.47
2023-01-17T22:13:53.082Z,5.60
2023-01-17T22:16:26.658Z,5.07
2023-01-17T22:18:55.311Z,4.50
2023-01-17T22:21:26.160Z,4.45
2023-01-17T22:23:58.669Z,4.60
2023-01-17T22:26:31.687Z,4.38
2023-01-17T22:29:03.713Z,4.45
2023-01-17T22:31:33.001Z,4.63
2023-01-17T22:34:02.865Z,4.30
2023-01-17T22:36:34.442Z,4.50
2023-01-17T22:39:06.315Z,4.45
2023-01-17T22:41:35.243Z,4.25
2023-01-17T22:44:05.401Z,3.80
2023-01-17T22:46:37.271Z,5.03
2023-01-17T22:49:08.460Z,3.63
2023-01-17T22:51:38.105Z,4.20
2023-01-17T22:54:07.942Z,4.50
2023-01-17T22:56:36.524Z,4.28
2023-01-17T22:59:11.290Z,3.63
2023-01-17T23:01:41.458Z,4.10
2023-01-17T23:04:13.464Z,4.15
2023-01-17T23:06:42.525Z,4.07
2023-01-17T23:09:14.224Z,4.40
2023-01-17T23:11:44.725Z,3.92
2023-01-17T23:14:16.192Z,4.00
2023-01-17T23:17:04.651Z,4.13
2023-01-17T23:19:36.947Z,4.35
2023-01-17T23:22:23.399Z,4.20
2023-01-17T23:24:59.638Z,3.80
2023-01-17T23:27:46.736Z,4.10
2023-01-17T23:30:16.671Z,4.50
2023-01-17T23:32:46.631Z,5.05
2023-01-17T23:35:17.390Z,3.65
2023-01-17T23:38:04.120Z,3.85
2023-01-17T23:40:37.717Z,3.90
2023-01-17T23:43:26.765Z,3.50
2023-01-17T23:45:59.352Z,3.75
2023-01-17T23:49:38.071Z,3.78
2023-01-17T23:52:29.931Z,3.88
2023-01-17T23:55:03.595Z,3.27
2023-01-17T23:57:33.326Z,3.55
